• Join FlightAware (Why Join?)
  • Login
  • US Flag 
12:50PM EDT


 

Airport Tracker/Info


-or-


 

Live Flight TrackerFlight Track Log ✈ N122RC ✈ 04-May-2013 ✈ KSBA - KBFL

Flight Track Log - Related Links

Times and Time Zones

All times are in EDT time to prevent confusion due to time zone crossing. See the N122RC flight status page for this flight to view local times or setup timezone preferences in your user account.

Time Position Orientation Groundspeed Altitude Reporting Facility
EDT Latitude Longitude Course Direction KTS MPH feet Rate Location/Type
11:26PM 34.4108 -119.8406 224° Southwest 91 105 300  Level Los Angeles Center
11:27PM 34.3869 -119.8689 224° Southwest 111 128 1,000 600 Climbing Los Angeles Center
11:28PM 34.3711 -119.8883 225° Southwest 140 161 1,500 780 Climbing Los Angeles Center
11:29PM 34.3503 -119.9242 235° Southwest 122 140 2,500 780 Climbing Los Angeles Center
11:30PM 34.3556 -119.9636 279° West 119 137 3,200 660 Climbing Los Angeles Center
11:31PM 34.3664 -120.0003 290° West 130 150 3,900 720 Climbing Los Angeles Center
11:32PM 34.3989 -119.9992 North 122 140 4,700 720 Climbing Los Angeles Center
11:33PM 34.4228 -119.9736 41° Northeast 116 133 5,400 660 Climbing Los Angeles Center
11:34PM 34.4489 -119.9494 37° Northeast 117 135 6,100 660 Climbing Los Angeles Center
11:35PM 34.4769 -119.9278 32° Northeast 123 142 6,800 540 Climbing Los Angeles Center
11:36PM 34.5064 -119.9025 35° Northeast 123 142 7,300 300 Climbing Los Angeles Center
11:37PM 34.5397 -119.8731 36° Northeast 138 159 7,500 360 Climbing Los Angeles Center
11:38PM 34.5750 -119.8392 38° Northeast 155 178 8,100 660 Climbing Los Angeles Center
11:39PM 34.6111 -119.8061 37° Northeast 148 170 8,900 540 Climbing Los Angeles Center
11:40PM 34.6422 -119.7806 34° Northeast 137 158 9,300 240 Climbing Los Angeles Center
11:41PM 34.6761 -119.7500 37° Northeast 149 171 9,500 120 Climbing Los Angeles Center
11:42PM 34.7125 -119.7169 37° Northeast 161 185 9,600  Climbing Los Angeles Center
11:43PM 34.7494 -119.6839 36° Northeast 165 190 9,600  Level Los Angeles Center
11:44PM 34.7869 -119.6503 36° Northeast 168 193 9,600  Level Los Angeles Center
11:45PM 34.8233 -119.6158 38° Northeast 168 193 9,600  Level Los Angeles Center
11:46PM 34.8683 -119.5758 36° Northeast 169 194 9,600  Level Los Angeles Center
11:47PM 34.9067 -119.5411 37° Northeast 170 196 9,600  Level Los Angeles Center
11:48PM 34.9442 -119.5089 35° Northeast 168 193 9,600 -240 Level Los Angeles Center
11:49PM 34.9794 -119.4722 40° Northeast 167 192 9,200 -600 Descending Los Angeles Center
11:50PM 35.0156 -119.4300 44° Northeast 176 203 8,400 -720 Descending Los Angeles Center
11:51PM 35.0497 -119.3900 44° Northeast 174 200 7,800 -600 Descending Los Angeles Center
11:52PM 35.0817 -119.3486 47° Northeast 171 197 7,200 -660 Descending Los Angeles Center
11:53PM 35.1139 -119.3078 46° Northeast 169 194 6,500 -660 Descending Los Angeles Center
11:54PM 35.1478 -119.2681 44° Northeast 168 193 5,900 -660 Descending Los Angeles Center
11:55PM 35.1803 -119.2275 46° Northeast 168 193 5,200 -720 Descending Los Angeles Center
11:56PM 35.2181 -119.1797 46° Northeast 167 192 4,500 -540 Descending Los Angeles Center
11:57PM 35.2467 -119.1419 47° Northeast 166 191 4,200 -300 Descending Los Angeles Center
11:59PM 35.2903 -119.1233 19° North  Level FlightAware Approximate
12:06AM 35.4333 -119.0500 29° Northeast  Level FlightAware Approximate
12:07AM 35.4339 -119.0577 29° Northeast  Level Estimated
12:08AM 35.4333 -119.0500 29° Northeast  Level FlightAware Approximate
12:09AM 35.4339 -119.0577 29° Northeast  Level Estimated
12:10AM 35.4333 -119.0500 29° Northeast  Level FlightAware Approximate
12:11AM 35.4339 -119.0577 29° Northeast  Level Estimated
12:12AM 35.4333 -119.0500 29° Northeast  Level FlightAware Approximate
12:13AM 35.4339 -119.0577 29° Northeast  Level Estimated
12:14AM 35.4333 -119.0500 29° Northeast  Level FlightAware Approximate